sensor_id;sensor_type;location;lat;lon;timestamp;pressure;altitude;pressure_sealevel;temperature;humidity
50933;BME280;36921;49.006;9.292;2023-02-23T00:00:10;98425.81;;;7.97;100.00
50933;BME280;36921;49.006;9.292;2023-02-23T00:02:46;98434.38;;;8.07;100.00
50933;BME280;36921;49.006;9.292;2023-02-23T00:05:12;98438.50;;;8.09;100.00
50933;BME280;36921;49.006;9.292;2023-02-23T00:07:37;98440.78;;;8.06;100.00
50933;BME280;36921;49.006;9.292;2023-02-23T00:10:03;98435.09;;;7.94;100.00
50933;BME280;36921;49.006;9.292;2023-02-23T00:12:28;98447.34;;;7.97;100.00
50933;BME280;36921;49.006;9.292;2023-02-23T00:14:54;98437.34;;;7.90;100.00
50933;BME280;36921;49.006;9.292;2023-02-23T00:17:19;98432.03;;;7.97;100.00
50933;BME280;36921;49.006;9.292;2023-02-23T00:19:46;98423.03;;;7.90;100.00
50933;BME280;36921;49.006;9.292;2023-02-23T00:22:13;98428.28;;;7.98;100.00
50933;BME280;36921;49.006;9.292;2023-02-23T00:24:38;98432.03;;;7.97;100.00
50933;BME280;36921;49.006;9.292;2023-02-23T00:27:06;98420.00;;;8.00;100.00
50933;BME280;36921;49.006;9.292;2023-02-23T00:32:06;98435.72;;;8.24;100.00
50933;BME280;36921;49.006;9.292;2023-02-23T00:34:32;98441.31;;;8.23;100.00
50933;BME280;36921;49.006;9.292;2023-02-23T00:36:59;98440.44;;;8.16;100.00
50933;BME280;36921;49.006;9.292;2023-02-23T00:39:26;98438.31;;;8.11;100.00
50933;BME280;36921;49.006;9.292;2023-02-23T00:41:54;98436.84;;;8.08;100.00
50933;BME280;36921;49.006;9.292;2023-02-23T00:44:20;98427.88;;;8.01;100.00
50933;BME280;36921;49.006;9.292;2023-02-23T00:46:48;98444.13;;;8.15;100.00
50933;BME280;36921;49.006;9.292;2023-02-23T00:49:16;98434.47;;;8.20;100.00
50933;BME280;36921;49.006;9.292;2023-02-23T00:51:42;98426.97;;;8.16;100.00
50933;BME280;36921;49.006;9.292;2023-02-23T00:54:13;98430.72;;;8.21;100.00
50933;BME280;36921;49.006;9.292;2023-02-23T00:56:38;98428.84;;;8.22;100.00
50933;BME280;36921;49.006;9.292;2023-02-23T00:59:04;98426.75;;;8.17;100.00
50933;BME280;36921;49.006;9.292;2023-02-23T01:01:31;98425.91;;;8.10;100.00
50933;BME280;36921;49.006;9.292;2023-02-23T01:03:56;98414.25;;;8.09;100.00
50933;BME280;36921;49.006;9.292;2023-02-23T01:06:21;98416.81;;;8.18;100.00
50933;BME280;36921;49.006;9.292;2023-02-23T01:08:49;98430.38;;;8.31;100.00
50933;BME280;36921;49.006;9.292;2023-02-23T01:11:17;98423.47;;;8.22;100.00
50933;BME280;36921;49.006;9.292;2023-02-23T01:13:46;98436.75;;;8.23;100.00
50933;BME280;36921;49.006;9.292;2023-02-23T01:16:15;98424.28;;;8.16;100.00
50933;BME280;36921;49.006;9.292;2023-02-23T01:18:44;98430.91;;;8.20;100.00
50933;BME280;36921;49.006;9.292;2023-02-23T01:23:39;98423.81;;;8.12;100.00
50933;BME280;36921;49.006;9.292;2023-02-23T01:26:04;98433.59;;;8.20;100.00
50933;BME280;36921;49.006;9.292;2023-02-23T01:28:32;98441.66;;;8.13;100.00
50933;BME280;36921;49.006;9.292;2023-02-23T01:30:58;98427.88;;;8.01;100.00
50933;BME280;36921;49.006;9.292;2023-02-23T01:33:23;98432.03;;;7.97;100.00
50933;BME280;36921;49.006;9.292;2023-02-23T01:35:58;98439.31;;;8.03;100.00
50933;BME280;36921;49.006;9.292;2023-02-23T01:38:24;98435.97;;;8.01;100.00
50933;BME280;36921;49.006;9.292;2023-02-23T01:40:49;98431.88;;;8.05;100.00
50933;BME280;36921;49.006;9.292;2023-02-23T01:43:17;98428.50;;;7.97;100.00
50933;BME280;36921;49.006;9.292;2023-02-23T01:45:49;98429.06;;;7.92;100.00
50933;BME280;36921;49.006;9.292;2023-02-23T01:48:18;98433.56;;;7.85;100.00
50933;BME280;36921;49.006;9.292;2023-02-23T01:50:55;98442.03;;;7.82;100.00
50933;BME280;36921;49.006;9.292;2023-02-23T01:53:22;98428.75;;;7.52;100.00
50933;BME280;36921;49.006;9.292;2023-02-23T01:55:52;98440.22;;;7.39;100.00
50933;BME280;36921;49.006;9.292;2023-02-23T01:58:22;98443.78;;;7.25;100.00
50933;BME280;36921;49.006;9.292;2023-02-23T02:00:51;98437.13;;;7.21;100.00
50933;BME280;36921;49.006;9.292;2023-02-23T02:03:32;98452.84;;;7.39;100.00
50933;BME280;36921;49.006;9.292;2023-02-23T02:06:00;98440.22;;;7.39;100.00
50933;BME280;36921;49.006;9.292;2023-02-23T02:08:28;98444.78;;;7.39;100.00
50933;BME280;36921;49.006;9.292;2023-02-23T02:10:54;98425.19;;;7.30;100.00
50933;BME280;36921;49.006;9.292;2023-02-23T02:13:25;98434.19;;;7.37;100.00
50933;BME280;36921;49.006;9.292;2023-02-23T02:27:54;98439.25;;;7.68;100.00
50933;BME280;36921;49.006;9.292;2023-02-23T02:35:58;98428.31;;;7.77;100.00
50933;BME280;36921;49.006;9.292;2023-02-23T02:38:36;98416.00;;;7.67;100.00
50933;BME280;36921;49.006;9.292;2023-02-23T02:41:34;98425.19;;;7.73;100.00
50933;BME280;36921;49.006;9.292;2023-02-23T02:44:14;98415.31;;;7.59;100.00
50933;BME280;36921;49.006;9.292;2023-02-23T02:46:45;98421.09;;;7.56;100.00
50933;BME280;36921;49.006;9.292;2023-02-23T02:49:25;98426.22;;;7.51;100.00
50933;BME280;36921;49.006;9.292;2023-02-23T02:51:59;98419.94;;;7.43;100.00
50933;BME280;36921;49.006;9.292;2023-02-23T02:54:32;98423.72;;;7.49;100.00
50933;BME280;36921;49.006;9.292;2023-02-23T02:57:02;98428.34;;;7.55;100.00
50933;BME280;36921;49.006;9.292;2023-02-23T02:59:28;98434.13;;;7.52;100.00
50933;BME280;36921;49.006;9.292;2023-02-23T03:02:15;98427.72;;;7.53;100.00
50933;BME280;36921;49.006;9.292;2023-02-23T03:04:59;98431.03;;;7.55;100.00
50933;BME280;36921;49.006;9.292;2023-02-23T03:11:08;98419.25;;;7.56;100.00
50933;BME280;36921;49.006;9.292;2023-02-23T03:14:07;98430.00;;;7.56;100.00
50933;BME280;36921;49.006;9.292;2023-02-23T03:17:10;98427.72;;;7.53;100.00
50933;BME280;36921;49.006;9.292;2023-02-23T03:22:56;98429.63;;;7.38;100.00
50933;BME280;36921;49.006;9.292;2023-02-23T03:28:52;98438.16;;;7.41;100.00
50933;BME280;36921;49.006;9.292;2023-02-23T03:31:45;98428.84;;;7.44;100.00
50933;BME280;36921;49.006;9.292;2023-02-23T03:34:48;98437.19;;;7.49;100.00
50933;BME280;36921;49.006;9.292;2023-02-23T03:37:44;98436.56;;;7.47;100.00
50933;BME280;36921;49.006;9.292;2023-02-23T03:40:36;98432.00;;;7.47;100.00
50933;BME280;36921;49.006;9.292;2023-02-23T03:43:24;98431.63;;;7.51;100.00
50933;BME280;36921;49.006;9.292;2023-02-23T03:46:11;98432.31;;;7.59;100.00
50933;BME280;36921;49.006;9.292;2023-02-23T03:48:59;98427.06;;;7.51;100.00
50933;BME280;36921;49.006;9.292;2023-02-23T03:51:48;98433.75;;;7.55;100.00
50933;BME280;36921;49.006;9.292;2023-02-23T03:54:38;98440.22;;;7.61;100.00
50933;BME280;36921;49.006;9.292;2023-02-23T03:57:26;98433.78;;;7.62;100.00
50933;BME280;36921;49.006;9.292;2023-02-23T04:00:16;98431.03;;;7.55;100.00
50933;BME280;36921;49.006;9.292;2023-02-23T04:03:02;98431.19;;;7.47;100.00
50933;BME280;36921;49.006;9.292;2023-02-23T04:05:47;98430.31;;;7.46;100.00
50933;BME280;36921;49.006;9.292;2023-02-23T04:08:35;98429.88;;;7.43;100.00
50933;BME280;36921;49.006;9.292;2023-02-23T04:14:35;98429.75;;;7.51;100.00
50933;BME280;36921;49.006;9.292;2023-02-23T04:16:57;98434.38;;;7.57;100.00
50933;BME280;36921;49.006;9.292;2023-02-23T04:19:25;98430.41;;;7.53;100.00
50933;BME280;36921;49.006;9.292;2023-02-23T04:21:51;98439.81;;;7.64;100.00
50933;BME280;36921;49.006;9.292;2023-02-23T04:24:17;98421.22;;;7.69;100.00
50933;BME280;36921;49.006;9.292;2023-02-23T04:26:42;98430.91;;;7.63;100.00
50933;BME280;36921;49.006;9.292;2023-02-23T04:29:10;98405.53;;;7.51;100.00
50933;BME280;36921;49.006;9.292;2023-02-23T04:31:35;98434.81;;;7.61;100.00
50933;BME280;36921;49.006;9.292;2023-02-23T04:34:00;98419.25;;;7.56;100.00
50933;BME280;36921;49.006;9.292;2023-02-23T04:36:26;98419.72;;;7.60;100.00
50933;BME280;36921;49.006;9.292;2023-02-23T04:38:51;98445.28;;;7.71;100.00
50933;BME280;36921;49.006;9.292;2023-02-23T04:41:17;98432.38;;;7.66;100.00
50933;BME280;36921;49.006;9.292;2023-02-23T04:43:43;98427.56;;;7.61;100.00
50933;BME280;36921;49.006;9.292;2023-02-23T04:46:08;98440.03;;;7.62;100.00
50933;BME280;36921;49.006;9.292;2023-02-23T04:48:33;98419.38;;;7.48;100.00
50933;BME280;36921;49.006;9.292;2023-02-23T04:50:59;98433.09;;;7.53;100.00
50933;BME280;36921;49.006;9.292;2023-02-23T04:53:24;98445.41;;;7.62;100.00
50933;BME280;36921;49.006;9.292;2023-02-23T04:55:50;98434.97;;;7.53;100.00
50933;BME280;36921;49.006;9.292;2023-02-23T04:58:15;98424.44;;;7.58;100.00
50933;BME280;36921;49.006;9.292;2023-02-23T05:00:40;98434.00;;;7.60;100.00
50933;BME280;36921;49.006;9.292;2023-02-23T05:03:06;98434.84;;;7.67;100.00
50933;BME280;36921;49.006;9.292;2023-02-23T05:05:31;98439.25;;;7.68;100.00
50933;BME280;36921;49.006;9.292;2023-02-23T05:07:57;98435.72;;;7.68;100.00
50933;BME280;36921;49.006;9.292;2023-02-23T05:10:22;98443.00;;;7.74;100.00
50933;BME280;36921;49.006;9.292;2023-02-23T05:12:48;98439.88;;;7.71;100.00
50933;BME280;36921;49.006;9.292;2023-02-23T05:15:13;98441.53;;;7.72;100.00
50933;BME280;36921;49.006;9.292;2023-02-23T05:17:39;98447.75;;;7.72;100.00
50933;BME280;36921;49.006;9.292;2023-02-23T05:20:12;98426.75;;;7.61;100.00
50933;BME280;36921;49.006;9.292;2023-02-23T05:22:38;98424.94;;;7.68;100.00
50933;BME280;36921;49.006;9.292;2023-02-23T05:25:05;98443.19;;;7.73;100.00
50933;BME280;36921;49.006;9.292;2023-02-23T05:27:31;98444.06;;;7.73;100.00
50933;BME280;36921;49.006;9.292;2023-02-23T05:29:57;98440.47;;;7.66;100.00
50933;BME280;36921;49.006;9.292;2023-02-23T05:32:22;98436.16;;;7.72;100.00
50933;BME280;36921;49.006;9.292;2023-02-23T05:34:47;98427.19;;;7.64;100.00
50933;BME280;36921;49.006;9.292;2023-02-23T05:37:13;98438.41;;;7.68;100.00
50933;BME280;36921;49.006;9.292;2023-02-23T05:39:38;98432.13;;;7.61;100.00
50933;BME280;36921;49.006;9.292;2023-02-23T05:42:04;98446.66;;;7.66;100.00
50933;BME280;36921;49.006;9.292;2023-02-23T05:44:29;98441.59;;;7.57;100.00
50933;BME280;36921;49.006;9.292;2023-02-23T05:46:54;98441.16;;;7.53;100.00
50933;BME280;36921;49.006;9.292;2023-02-23T05:49:20;98447.38;;;7.54;100.00
50933;BME280;36921;49.006;9.292;2023-02-23T05:51:45;98451.53;;;7.56;100.00
50933;BME280;36921;49.006;9.292;2023-02-23T05:54:11;98454.09;;;7.64;100.00
50933;BME280;36921;49.006;9.292;2023-02-23T05:56:37;98441.41;;;7.58;100.00
50933;BME280;36921;49.006;9.292;2023-02-23T05:59:02;98452.59;;;7.55;100.00
50933;BME280;36921;49.006;9.292;2023-02-23T06:01:29;98446.94;;;7.50;100.00
50933;BME280;36921;49.006;9.292;2023-02-23T06:03:54;98451.94;;;7.53;100.00
50933;BME280;36921;49.006;9.292;2023-02-23T06:06:20;98456.22;;;7.47;100.00
50933;BME280;36921;49.006;9.292;2023-02-23T06:08:47;98458.97;;;7.54;100.00
50933;BME280;36921;49.006;9.292;2023-02-23T06:11:12;98449.25;;;7.53;100.00
50933;BME280;36921;49.006;9.292;2023-02-23T06:13:37;98456.88;;;7.50;100.00
50933;BME280;36921;49.006;9.292;2023-02-23T06:16:04;98457.97;;;7.55;100.00
50933;BME280;36921;49.006;9.292;2023-02-23T06:18:29;98463.09;;;7.50;100.00
50933;BME280;36921;49.006;9.292;2023-02-23T06:20:58;98475.13;;;7.54;100.00
50933;BME280;36921;49.006;9.292;2023-02-23T06:23:24;98480.06;;;7.51;100.00
50933;BME280;36921;49.006;9.292;2023-02-23T06:25:49;98469.44;;;7.42;100.00
50933;BME280;36921;49.006;9.292;2023-02-23T06:28:15;98454.34;;;7.27;100.00
50933;BME280;36921;49.006;9.292;2023-02-23T06:30:40;98458.78;;;7.34;100.00
50933;BME280;36921;49.006;9.292;2023-02-23T06:33:06;98469.34;;;7.36;100.00
50933;BME280;36921;49.006;9.292;2023-02-23T06:35:32;98462.13;;;7.36;100.00
50933;BME280;36921;49.006;9.292;2023-02-23T06:37:58;98467.25;;;7.31;100.00
50933;BME280;36921;49.006;9.292;2023-02-23T06:40:24;98478.34;;;7.43;100.00
50933;BME280;36921;49.006;9.292;2023-02-23T06:42:49;98480.25;;;7.49;100.00
50933;BME280;36921;49.006;9.292;2023-02-23T06:45:15;98489.22;;;7.56;100.00
50933;BME280;36921;49.006;9.292;2023-02-23T06:47:40;98483.03;;;7.56;100.00
50933;BME280;36921;49.006;9.292;2023-02-23T06:50:07;98473.06;;;7.56;100.00
50933;BME280;36921;49.006;9.292;2023-02-23T06:52:32;98481.03;;;7.64;100.00
50933;BME280;36921;49.006;9.292;2023-02-23T06:54:57;98480.84;;;7.66;100.00
50933;BME280;36921;49.006;9.292;2023-02-23T06:57:23;98482.31;;;7.68;100.00
50933;BME280;36921;49.006;9.292;2023-02-23T06:59:49;98493.78;;;7.77;100.00
50933;BME280;36921;49.006;9.292;2023-02-23T07:02:16;98470.34;;;7.71;100.00
50933;BME280;36921;49.006;9.292;2023-02-23T07:04:42;98462.91;;;7.73;100.00
50933;BME280;36921;49.006;9.292;2023-02-23T07:07:07;98489.31;;;7.84;100.00
50933;BME280;36921;49.006;9.292;2023-02-23T07:09:33;98494.16;;;7.96;100.00
50933;BME280;36921;49.006;9.292;2023-02-23T07:11:59;98494.53;;;7.93;100.00
50933;BME280;36921;49.006;9.292;2023-02-23T07:14:24;98492.94;;;7.98;100.00
50933;BME280;36921;49.006;9.292;2023-02-23T07:16:50;98498.56;;;8.03;100.00
50933;BME280;36921;49.006;9.292;2023-02-23T07:19:15;98492.69;;;7.93;100.00
50933;BME280;36921;49.006;9.292;2023-02-23T07:21:40;98502.16;;;8.10;100.00
50933;BME280;36921;49.006;9.292;2023-02-23T07:24:06;98506.25;;;8.06;100.00
50933;BME280;36921;49.006;9.292;2023-02-23T07:26:32;98504.22;;;8.08;100.00
50933;BME280;36921;49.006;9.292;2023-02-23T07:28:59;98491.06;;;7.99;100.00
50933;BME280;36921;49.006;9.292;2023-02-23T07:31:24;98493.41;;;8.02;100.00
50933;BME280;36921;49.006;9.292;2023-02-23T07:33:50;98494.53;;;7.93;100.00
50933;BME280;36921;49.006;9.292;2023-02-23T07:36:17;98490.09;;;8.06;100.00
50933;BME280;36921;49.006;9.292;2023-02-23T07:38:42;98494.72;;;8.12;100.00
50933;BME280;36921;49.006;9.292;2023-02-23T07:41:08;98481.00;;;8.07;100.00
50933;BME280;36921;49.006;9.292;2023-02-23T07:43:33;98492.19;;;8.04;100.00
50933;BME280;36921;49.006;9.292;2023-02-23T07:45:59;98508.06;;;8.21;100.00
50933;BME280;36921;49.006;9.292;2023-02-23T07:48:25;98501.72;;;8.35;100.00
50933;BME280;36921;49.006;9.292;2023-02-23T07:50:50;98492.91;;;8.41;100.00
50933;BME280;36921;49.006;9.292;2023-02-23T07:53:16;98473.81;;;8.43;100.00
50933;BME280;36921;49.006;9.292;2023-02-23T07:55:41;98488.44;;;8.62;100.00
50933;BME280;36921;49.006;9.292;2023-02-23T07:58:07;98514.72;;;8.88;100.00
50933;BME280;36921;49.006;9.292;2023-02-23T08:00:34;98499.22;;;8.96;100.00
50933;BME280;36921;49.006;9.292;2023-02-23T08:03:00;98505.09;;;9.07;100.00
50933;BME280;36921;49.006;9.292;2023-02-23T08:05:26;98461.34;;;8.70;100.00
50933;BME280;36921;49.006;9.292;2023-02-23T08:07:52;98511.09;;;9.09;100.00
50933;BME280;36921;49.006;9.292;2023-02-23T08:10:18;98507.38;;;9.10;100.00
50933;BME280;36921;49.006;9.292;2023-02-23T08:12:43;98483.03;;;8.96;100.00
50933;BME280;36921;49.006;9.292;2023-02-23T08:15:09;98496.03;;;9.28;100.00
50933;BME280;36921;49.006;9.292;2023-02-23T08:17:35;98483.38;;;9.35;100.00
50933;BME280;36921;49.006;9.292;2023-02-23T08:20:00;98484.47;;;9.60;100.00
50933;BME280;36921;49.006;9.292;2023-02-23T08:22:26;98493.84;;;9.84;100.00
50933;BME280;36921;49.006;9.292;2023-02-23T08:24:51;98506.53;;;9.84;100.00
50933;BME280;36921;49.006;9.292;2023-02-23T08:27:18;98504.66;;;9.84;100.00
50933;BME280;36921;49.006;9.292;2023-02-23T08:29:44;98496.97;;;9.81;100.00
50933;BME280;36921;49.006;9.292;2023-02-23T08:32:09;98486.38;;;9.73;100.00
50933;BME280;36921;49.006;9.292;2023-02-23T08:34:42;98508.00;;;9.93;100.00
50933;BME280;36921;49.006;9.292;2023-02-23T08:37:08;98486.19;;;10.01;100.00
50933;BME280;36921;49.006;9.292;2023-02-23T08:39:34;98502.00;;;10.51;100.00
50933;BME280;36921;49.006;9.292;2023-02-23T08:41:59;98476.81;;;10.44;100.00
50933;BME280;36921;49.006;9.292;2023-02-23T08:44:25;98480.56;;;10.56;100.00
50933;BME280;36921;49.006;9.292;2023-02-23T08:46:51;98494.28;;;10.55;100.00
50933;BME280;36921;49.006;9.292;2023-02-23T08:49:18;98491.13;;;10.71;100.00
50933;BME280;36921;49.006;9.292;2023-02-23T08:51:43;98475.38;;;10.48;100.00
50933;BME280;36921;49.006;9.292;2023-02-23T08:54:10;98485.31;;;10.61;100.00
50933;BME280;36921;49.006;9.292;2023-02-23T08:56:39;98494.09;;;10.56;100.00
50933;BME280;36921;49.006;9.292;2023-02-23T08:59:05;98504.91;;;10.49;100.00
50933;BME280;36921;49.006;9.292;2023-02-23T09:01:30;98493.47;;;10.34;100.00
50933;BME280;36921;49.006;9.292;2023-02-23T09:03:55;98494.47;;;10.53;100.00
50933;BME280;36921;49.006;9.292;2023-02-23T09:06:23;98506.72;;;10.75;100.00
50933;BME280;36921;49.006;9.292;2023-02-23T09:08:53;98502.72;;;10.98;100.00
50933;BME280;36921;49.006;9.292;2023-02-23T09:11:19;98503.94;;;11.02;100.00
50933;BME280;36921;49.006;9.292;2023-02-23T09:13:45;98484.66;;;10.85;100.00
50933;BME280;36921;49.006;9.292;2023-02-23T09:16:10;98498.72;;;11.14;100.00
50933;BME280;36921;49.006;9.292;2023-02-23T09:18:37;98458.47;;;11.17;100.00
50933;BME280;36921;49.006;9.292;2023-02-23T09:21:05;98487.75;;;11.40;100.00
50933;BME280;36921;49.006;9.292;2023-02-23T09:23:32;98480.16;;;11.56;100.00
50933;BME280;36921;49.006;9.292;2023-02-23T09:26:02;98485.03;;;11.79;100.00
50933;BME280;36921;49.006;9.292;2023-02-23T09:28:27;98478.88;;;12.22;100.00
50933;BME280;36921;49.006;9.292;2023-02-23T09:30:55;98493.47;;;12.89;100.00
50933;BME280;36921;49.006;9.292;2023-02-23T09:33:20;98488.31;;;12.81;100.00
50933;BME280;36921;49.006;9.292;2023-02-23T09:35:45;98492.84;;;12.69;100.00
50933;BME280;36921;49.006;9.292;2023-02-23T09:38:11;98475.16;;;12.60;100.00
50933;BME280;36921;49.006;9.292;2023-02-23T09:40:46;98493.63;;;13.62;100.00
50933;BME280;36921;49.006;9.292;2023-02-23T09:49:12;98466.00;;;16.54;100.00
50933;BME280;36921;49.006;9.292;2023-02-23T09:51:43;98488.38;;;16.17;100.00
50933;BME280;36921;49.006;9.292;2023-02-23T09:54:13;98475.53;;;16.18;100.00
50933;BME280;36921;49.006;9.292;2023-02-23T09:56:47;98484.81;;;18.32;100.00
50933;BME280;36921;49.006;9.292;2023-02-23T09:59:19;98473.81;;;20.72;94.45
50933;BME280;36921;49.006;9.292;2023-02-23T10:02:45;98466.22;;;22.62;69.31
50933;BME280;36921;49.006;9.292;2023-02-23T10:05:15;98466.81;;;23.98;61.35
50933;BME280;36921;49.006;9.292;2023-02-23T10:07:52;98471.53;;;26.01;53.19
50933;BME280;36921;49.006;9.292;2023-02-23T10:16:09;98461.63;;;26.99;48.35
50933;BME280;36921;49.006;9.292;2023-02-23T10:18:48;98471.59;;;26.47;48.40
50933;BME280;36921;49.006;9.292;2023-02-23T10:22:01;98461.38;;;26.56;47.98
50933;BME280;36921;49.006;9.292;2023-02-23T10:24:26;98456.69;;;25.20;49.66
50933;BME280;36921;49.006;9.292;2023-02-23T10:26:59;98468.91;;;24.58;50.75
50933;BME280;36921;49.006;9.292;2023-02-23T10:32:05;98450.03;;;23.52;52.41
50933;BME280;36921;49.006;9.292;2023-02-23T10:34:31;98435.94;;;22.28;57.40
50933;BME280;36921;49.006;9.292;2023-02-23T10:37:03;98444.88;;;21.05;62.80
50933;BME280;36921;49.006;9.292;2023-02-23T10:39:31;98466.28;;;21.13;63.69
50933;BME280;36921;49.006;9.292;2023-02-23T10:42:04;98473.31;;;21.50;64.95
50933;BME280;36921;49.006;9.292;2023-02-23T10:44:32;98463.63;;;22.07;65.71
50933;BME280;36921;49.006;9.292;2023-02-23T10:47:12;98456.84;;;22.29;59.40
50933;BME280;36921;49.006;9.292;2023-02-23T10:49:45;98473.75;;;22.81;57.83
50933;BME280;36921;49.006;9.292;2023-02-23T10:52:14;98466.88;;;22.20;59.48
50933;BME280;36921;49.006;9.292;2023-02-23T10:54:46;98475.75;;;24.09;55.35
50933;BME280;36921;49.006;9.292;2023-02-23T10:57:22;98461.59;;;24.48;52.12
50933;BME280;36921;49.006;9.292;2023-02-23T11:02:27;98476.59;;;20.31;61.79
50933;BME280;36921;49.006;9.292;2023-02-23T11:04:58;98481.91;;;19.49;78.82
50933;BME280;36921;49.006;9.292;2023-02-23T11:07:28;98471.28;;;18.57;91.99
50933;BME280;36921;49.006;9.292;2023-02-23T11:09:58;98476.78;;;19.00;95.64
50933;BME280;36921;49.006;9.292;2023-02-23T11:12:43;98470.25;;;19.11;100.00
50933;BME280;36921;49.006;9.292;2023-02-23T11:17:57;98467.75;;;17.92;100.00
50933;BME280;36921;49.006;9.292;2023-02-23T11:20:34;98459.84;;;17.47;100.00
50933;BME280;36921;49.006;9.292;2023-02-23T11:23:24;98465.25;;;17.42;100.00
50933;BME280;36921;49.006;9.292;2023-02-23T11:25:54;98457.41;;;18.32;100.00
50933;BME280;36921;49.006;9.292;2023-02-23T11:28:24;98456.13;;;19.50;92.94
50933;BME280;36921;49.006;9.292;2023-02-23T11:30:56;98404.59;;;20.49;78.43
50933;BME280;36921;49.006;9.292;2023-02-23T11:33:26;98441.22;;;21.25;69.21
50933;BME280;36921;49.006;9.292;2023-02-23T11:36:11;98451.94;;;21.27;66.59
50933;BME280;36921;49.006;9.292;2023-02-23T11:38:37;98435.59;;;21.56;67.31
50933;BME280;36921;49.006;9.292;2023-02-23T11:41:09;98431.16;;;21.60;64.50
50933;BME280;36921;49.006;9.292;2023-02-23T11:43:47;98425.81;;;22.13;67.50
50933;BME280;36921;49.006;9.292;2023-02-23T11:46:13;98418.13;;;23.22;60.84
50933;BME280;36921;49.006;9.292;2023-02-23T11:48:52;98423.75;;;24.77;55.52
50933;BME280;36921;49.006;9.292;2023-02-23T11:51:25;98440.41;;;23.06;56.28
50933;BME280;36921;49.006;9.292;2023-02-23T11:53:53;98423.22;;;20.88;64.33
50933;BME280;36921;49.006;9.292;2023-02-23T11:56:20;98434.56;;;21.41;63.84
50933;BME280;36921;49.006;9.292;2023-02-23T12:01:17;98413.09;;;21.88;60.02
50933;BME280;36921;49.006;9.292;2023-02-23T12:03:48;98417.94;;;21.62;63.44
50933;BME280;36921;49.006;9.292;2023-02-23T12:06:31;98411.06;;;22.62;59.58
50933;BME280;36921;49.006;9.292;2023-02-23T12:09:22;98418.47;;;24.28;56.60
50933;BME280;36921;49.006;9.292;2023-02-23T12:11:52;98417.59;;;24.80;50.92
50933;BME280;36921;49.006;9.292;2023-02-23T12:14:22;98413.09;;;25.39;51.81
50933;BME280;36921;49.006;9.292;2023-02-23T12:16:49;98415.25;;;24.87;50.79
50933;BME280;36921;49.006;9.292;2023-02-23T12:19:27;98408.06;;;23.74;53.30
50933;BME280;36921;49.006;9.292;2023-02-23T12:22:19;98395.31;;;21.70;58.97
50933;BME280;36921;49.006;9.292;2023-02-23T12:24:55;98396.38;;;21.24;61.09
50933;BME280;36921;49.006;9.292;2023-02-23T12:27:26;98409.00;;;20.61;63.52
50933;BME280;36921;49.006;9.292;2023-02-23T12:30:04;98405.63;;;19.46;66.98
50933;BME280;36921;49.006;9.292;2023-02-23T12:35:25;98417.16;;;18.75;78.07
50933;BME280;36921;49.006;9.292;2023-02-23T12:37:57;98401.84;;;18.79;88.50
50933;BME280;36921;49.006;9.292;2023-02-23T12:40:27;98405.34;;;19.37;84.98
50933;BME280;36921;49.006;9.292;2023-02-23T12:43:04;98407.53;;;19.40;72.09
50933;BME280;36921;49.006;9.292;2023-02-23T12:48:27;98401.34;;;19.76;68.92
50933;BME280;36921;49.006;9.292;2023-02-23T12:50:56;98387.31;;;20.33;66.59
50933;BME280;36921;49.006;9.292;2023-02-23T12:53:37;98390.25;;;19.35;64.75
50933;BME280;36921;49.006;9.292;2023-02-23T13:01:38;98392.81;;;19.82;73.83
50933;BME280;36921;49.006;9.292;2023-02-23T13:04:23;98384.25;;;19.58;74.30
50933;BME280;36921;49.006;9.292;2023-02-23T13:06:55;98388.53;;;19.08;75.88
50933;BME280;36921;49.006;9.292;2023-02-23T13:09:43;98394.31;;;18.59;70.85
50933;BME280;36921;49.006;9.292;2023-02-23T13:12:28;98385.78;;;18.50;75.46
50933;BME280;36921;49.006;9.292;2023-02-23T13:18:03;98386.88;;;17.25;99.75
50933;BME280;36921;49.006;9.292;2023-02-23T13:20:37;98393.44;;;17.24;100.00
50933;BME280;36921;49.006;9.292;2023-02-23T13:23:29;98397.00;;;16.42;100.00
50933;BME280;36921;49.006;9.292;2023-02-23T13:26:06;98385.63;;;16.28;100.00
50933;BME280;36921;49.006;9.292;2023-02-23T13:31:25;98388.94;;;15.80;100.00
50933;BME280;36921;49.006;9.292;2023-02-23T13:33:53;98382.28;;;15.59;100.00
50933;BME280;36921;49.006;9.292;2023-02-23T13:36:20;98384.78;;;15.60;100.00
50933;BME280;36921;49.006;9.292;2023-02-23T13:41:51;98385.09;;;15.64;100.00
50933;BME280;36921;49.006;9.292;2023-02-23T13:44:22;98389.41;;;15.60;100.00
50933;BME280;36921;49.006;9.292;2023-02-23T13:47:32;98373.91;;;15.77;100.00
50933;BME280;36921;49.006;9.292;2023-02-23T13:50:18;98386.81;;;15.98;100.00
50933;BME280;36921;49.006;9.292;2023-02-23T13:52:52;98375.38;;;15.68;100.00
50933;BME280;36921;49.006;9.292;2023-02-23T13:58:13;98374.00;;;15.82;100.00
50933;BME280;36921;49.006;9.292;2023-02-23T14:00:40;98373.34;;;15.75;100.00
50933;BME280;36921;49.006;9.292;2023-02-23T14:03:06;98363.00;;;15.77;100.00
50933;BME280;36921;49.006;9.292;2023-02-23T14:05:41;98365.34;;;15.85;100.00
50933;BME280;36921;49.006;9.292;2023-02-23T14:08:21;98370.88;;;15.90;100.00
50933;BME280;36921;49.006;9.292;2023-02-23T14:10:47;98355.28;;;16.25;100.00
50933;BME280;36921;49.006;9.292;2023-02-23T14:18:27;98367.06;;;18.85;96.50
50933;BME280;36921;49.006;9.292;2023-02-23T14:21:10;98360.00;;;19.09;88.48
50933;BME280;36921;49.006;9.292;2023-02-23T14:28:45;98368.66;;;18.33;90.73
50933;BME280;36921;49.006;9.292;2023-02-23T14:41:23;98359.81;;;16.36;100.00
50933;BME280;36921;49.006;9.292;2023-02-23T14:43:59;98367.69;;;16.54;100.00
50933;BME280;36921;49.006;9.292;2023-02-23T14:46:31;98364.50;;;16.40;100.00
50933;BME280;36921;49.006;9.292;2023-02-23T14:49:04;98352.19;;;16.38;100.00
50933;BME280;36921;49.006;9.292;2023-02-23T14:51:38;98369.84;;;16.30;100.00
50933;BME280;36921;49.006;9.292;2023-02-23T14:54:35;98369.16;;;16.23;100.00
50933;BME280;36921;49.006;9.292;2023-02-23T14:57:05;98369.59;;;16.15;100.00